Time;durP1;ratioP1;P1;durP2;ratioP2;P2;SDS_P1;SDS_P2;PMS_P1;PMS_P2;Temp;Humidity;BMP_temperature;BMP_pressure;BME280_temperature;BME280_humidity;BME280_pressure;Samples;Min_cycle;Max_cycle;Signal;HPM_P1;HPM_P2
2022/09/19 00:01:34;;;;;;;5.57;2.08;;;;;;;9.05;100.00;99966.78;5013348;28;20553;-64
2022/09/19 00:04:07;;;;;;;7.20;1.70;;;;;;;9.00;100.00;99968.84;5026612;28;20045;-64
2022/09/19 00:06:36;;;;;;;6.82;1.58;;;;;;;9.02;100.00;99969.63;5007817;28;20140;-64
2022/09/19 00:09:06;;;;;;;5.60;2.10;;;;;;;9.06;100.00;99966.72;5023899;28;20502;-63
2022/09/19 00:11:34;;;;;;;5.45;1.95;;;;;;;9.12;100.00;99963.69;5002902;28;20045;-64
2022/09/19 00:14:01;;;;;;;4.03;1.70;;;;;;;9.10;100.00;99962.13;5018478;28;20053;-65
2022/09/19 00:16:30;;;;;;;4.10;1.85;;;;;;;9.07;100.00;99957.88;5036963;23;20049;-61
2022/09/19 00:18:59;;;;;;;4.43;1.80;;;;;;;9.00;100.00;99956.56;5050151;28;20511;-64
2022/09/19 00:21:35;;;;;;;10.57;2.10;;;;;;;8.94;100.00;99974.50;5043365;28;20704;-64
2022/09/19 00:26:48;;;;;;;;;;;;;;;8.90;100.00;99973.84;5041710;28;20051;-63
2022/09/19 00:29:16;;;;;;;4.55;1.52;;;;;;;8.90;100.00;99978.25;5038381;28;19928;-64
2022/09/19 00:31:44;;;;;;;10.50;1.88;;;;;;;8.85;100.00;99974.13;5026417;28;20057;-65
2022/09/19 00:34:14;;;;;;;3.72;1.30;;;;;;;8.88;100.00;99975.75;5012137;28;20037;-64
2022/09/19 00:36:42;;;;;;;10.38;2.47;;;;;;;8.89;100.00;99982.66;5040047;28;20057;-63
2022/09/19 00:39:13;;;;;;;8.43;2.20;;;;;;;8.93;100.00;99981.53;5024091;28;20056;-64
2022/09/19 00:41:40;;;;;;;6.53;1.90;;;;;;;8.91;100.00;99980.78;5048828;28;20041;-63
2022/09/19 00:44:22;;;;;;;11.80;2.20;;;;;;;8.84;100.00;99977.69;5037539;28;20064;-64
2022/09/19 00:46:56;;;;;;;7.75;2.30;;;;;;;8.84;100.00;99987.38;5036014;28;20065;-64
2022/09/19 00:49:25;;;;;;;6.32;2.00;;;;;;;8.80;100.00;99989.31;5039226;28;20045;-64
2022/09/19 00:52:00;;;;;;;6.78;2.03;;;;;;;8.78;100.00;99983.34;5038596;28;20434;-64
2022/09/19 00:54:49;;;;;;;10.43;2.25;;;;;;;8.76;100.00;99987.81;5044704;28;20053;-65
2022/09/19 00:57:16;;;;;;;6.50;2.58;;;;;;;8.80;100.00;99984.06;5025667;28;20080;-64
2022/09/19 00:59:48;;;;;;;7.25;2.53;;;;;;;8.78;100.00;99988.59;5047034;28;20065;-65
2022/09/19 01:02:19;;;;;;;5.05;2.42;;;;;;;8.82;100.00;99992.69;5032238;28;20049;-66
2022/09/19 01:04:46;;;;;;;6.68;2.47;;;;;;;8.77;100.00;99988.66;5018797;28;20055;-64
2022/09/19 01:07:20;;;;;;;8.48;2.90;;;;;;;8.71;100.00;99996.94;5030218;28;20047;-63
2022/09/19 01:10:13;;;;;;;4.45;2.40;;;;;;;8.68;100.00;99994.47;5046437;28;20052;-63
2022/09/19 01:12:52;;;;;;;6.50;2.60;;;;;;;8.63;100.00;100002.63;5025921;28;20060;-62
2022/09/19 01:15:32;;;;;;;8.23;2.70;;;;;;;8.63;100.00;100003.47;5039063;28;20048;-65
2022/09/19 01:18:01;;;;;;;8.05;2.05;;;;;;;8.63;100.00;100000.84;5035052;28;20057;-65
2022/09/19 01:20:50;;;;;;;9.75;3.65;;;;;;;8.63;100.00;100013.97;5026756;28;20044;-64
2022/09/19 01:23:57;;;;;;;5.65;2.60;;;;;;;8.65;100.00;100007.81;5036349;28;20065;-63
2022/09/19 01:26:42;;;;;;;6.63;2.72;;;;;;;8.69;100.00;100006.66;5008044;28;20045;-63
2022/09/19 01:29:28;;;;;;;6.10;2.60;;;;;;;8.73;100.00;100010.78;5035697;28;20572;-62
2022/09/19 01:31:57;;;;;;;9.70;3.45;;;;;;;8.67;100.00;100005.91;5024440;28;20661;-64
2022/09/19 01:34:31;;;;;;;6.72;3.50;;;;;;;8.70;100.00;100011.84;5026227;28;20060;-63
2022/09/19 01:37:03;;;;;;;7.55;3.33;;;;;;;8.71;100.00;100015.28;5008672;28;20041;-64
2022/09/19 01:39:33;;;;;;;8.02;3.13;;;;;;;8.72;100.00;100022.22;5028545;28;20061;-63
2022/09/19 01:42:01;;;;;;;10.32;3.63;;;;;;;8.67;100.00;100014.63;5045213;28;20574;-63
2022/09/19 01:44:30;;;;;;;10.43;3.95;;;;;;;8.75;100.00;100022.03;5039507;28;20050;-62
2022/09/19 01:47:15;;;;;;;7.07;2.88;;;;;;;8.68;100.00;100020.72;5026337;28;20461;-64
2022/09/19 01:50:01;;;;;;;9.02;3.70;;;;;;;8.59;100.00;100022.97;5028528;28;20056;-64
2022/09/19 01:52:34;;;;;;;6.57;3.35;;;;;;;8.55;100.00;100018.81;5029363;28;20053;-63
2022/09/19 01:55:27;;;;;;;7.70;3.47;;;;;;;8.56;100.00;100025.78;5043376;28;20045;-64
2022/09/19 01:58:06;;;;;;;9.30;3.17;;;;;;;8.53;100.00;100033.00;5031941;28;20535;-63
2022/09/19 02:00:37;;;;;;;7.07;3.10;;;;;;;8.57;100.00;100037.97;5049618;28;20052;-63
2022/09/19 02:03:14;;;;;;;6.88;4.00;;;;;;;8.52;100.00;100032.16;5046181;28;20049;-64
2022/09/19 02:06:00;;;;;;;11.10;4.60;;;;;;;8.52;100.00;100033.94;5049941;28;20056;-63
2022/09/19 02:08:32;;;;;;;12.25;4.72;;;;;;;8.60;100.00;100029.03;5032583;28;20062;-65
2022/09/19 02:11:06;;;;;;;6.93;4.95;;;;;;;8.54;100.00;100040.75;5057782;28;20084;-64
2022/09/19 02:13:35;;;;;;;15.50;6.97;;;;;;;8.58;100.00;100049.28;5013864;28;20492;-63
2022/09/19 02:16:12;;;;;;;15.10;7.95;;;;;;;8.58;100.00;100044.88;5033925;28;20516;-63
2022/09/19 02:18:49;;;;;;;11.50;6.28;;;;;;;8.68;100.00;100049.59;5051675;28;20057;-65
2022/09/19 02:21:21;;;;;;;14.40;7.00;;;;;;;8.65;100.00;100044.53;5009508;28;20141;-64
2022/09/19 02:23:50;;;;;;;10.38;5.65;;;;;;;8.59;100.00;100043.94;5030570;28;20057;-64
2022/09/19 02:26:20;;;;;;;12.60;5.70;;;;;;;8.61;100.00;100046.50;5042914;28;20063;-64
2022/09/19 02:28:54;;;;;;;13.75;5.80;;;;;;;8.61;100.00;100046.50;5016168;28;20453;-63
2022/09/19 02:31:26;;;;;;;8.95;5.88;;;;;;;8.55;100.00;100055.56;5044824;28;20540;-63
2022/09/19 02:33:59;;;;;;;7.55;5.35;;;;;;;8.62;100.00;100056.91;5028538;28;20533;-64
2022/09/19 02:36:37;;;;;;;15.55;4.72;;;;;;;8.64;100.00;100054.16;5025843;28;20053;-63
2022/09/19 02:39:20;;;;;;;8.65;5.57;;;;;;;8.65;100.00;100063.75;5047610;28;20107;-63
2022/09/19 02:42:09;;;;;;;9.82;4.82;;;;;;;8.63;100.00;100061.19;5025484;28;20143;-63
2022/09/19 02:45:04;;;;;;;8.93;5.15;;;;;;;8.58;100.00;100068.50;5012922;28;20045;-64
2022/09/19 02:48:04;;;;;;;9.35;4.82;;;;;;;8.53;100.00;100060.06;5050189;28;20064;-63
2022/09/19 02:50:55;;;;;;;13.55;6.43;;;;;;;8.52;100.00;100063.63;5024352;28;20451;-65
2022/09/19 02:53:29;;;;;;;7.00;5.05;;;;;;;8.56;100.00;100062.50;5046219;28;20056;-62
2022/09/19 02:56:01;;;;;;;8.70;5.20;;;;;;;8.56;100.00;100059.91;5024421;28;20050;-63
2022/09/19 02:58:36;;;;;;;8.95;5.93;;;;;;;8.66;100.00;100064.59;5026929;28;20140;-63
2022/09/19 03:01:06;;;;;;;7.17;5.87;;;;;;;8.63;100.00;100068.22;5022851;28;20374;-63
2022/09/19 03:06:42;;;;;;;11.35;5.82;;;;;;;8.65;100.00;100086.53;5030305;28;20049;-63
2022/09/19 03:09:11;;;;;;;9.57;5.22;;;;;;;8.67;100.00;100074.16;5025461;28;20045;-62
2022/09/19 03:11:41;;;;;;;9.80;4.80;;;;;;;8.63;100.00;100078.72;5047043;28;20423;-65
2022/09/19 03:14:09;;;;;;;8.00;3.92;;;;;;;8.66;100.00;100080.34;5015137;28;20074;-62
2022/09/19 03:16:41;;;;;;;8.85;4.68;;;;;;;8.67;100.00;100088.09;5040548;28;20060;-63
2022/09/19 03:19:09;;;;;;;11.32;4.50;;;;;;;8.72;100.00;100088.66;5050961;28;20080;-63
2022/09/19 03:21:38;;;;;;;7.85;4.70;;;;;;;8.72;100.00;100090.47;5026650;28;20053;-64
2022/09/19 03:24:06;;;;;;;6.05;4.13;;;;;;;8.77;100.00;100091.03;5029525;28;20053;-64
2022/09/19 03:26:35;;;;;;;6.95;4.63;;;;;;;8.70;100.00;100103.69;5019900;28;20058;-64
2022/09/19 03:29:05;;;;;;;8.63;5.47;;;;;;;8.65;100.00;100108.34;5049431;28;20056;-63
2022/09/19 03:31:32;;;;;;;15.60;5.68;;;;;;;8.70;100.00;100101.06;5033462;28;20062;-65
2022/09/19 03:34:00;;;;;;;7.45;5.28;;;;;;;8.68;100.00;100104.69;5046397;28;20060;-63
2022/09/19 03:36:29;;;;;;;11.07;4.93;;;;;;;8.68;100.00;100108.16;5028391;28;20053;-64
2022/09/19 03:39:01;;;;;;;8.82;5.53;;;;;;;8.68;100.00;100105.53;5030612;28;20493;-63
2022/09/19 03:41:32;;;;;;;7.25;5.25;;;;;;;8.69;100.00;100109.00;5037618;28;20052;-63
2022/09/19 03:44:01;;;;;;;10.23;5.55;;;;;;;8.70;100.00;100114.16;5029539;28;20159;-64
2022/09/19 03:46:32;;;;;;;11.32;6.43;;;;;;;8.71;100.00;100115.84;5028222;28;20056;-63
2022/09/19 03:49:00;;;;;;;8.23;5.00;;;;;;;8.78;100.00;100121.56;5041177;28;20144;-63
2022/09/19 03:51:31;;;;;;;11.43;5.28;;;;;;;8.79;100.00;100118.88;5045571;28;20059;-64
2022/09/19 03:53:58;;;;;;;9.70;5.68;;;;;;;8.82;100.00;100118.66;5037685;28;20501;-64
2022/09/19 03:56:25;;;;;;;11.30;5.63;;;;;;;8.82;100.00;100121.28;5047296;28;20051;-64
2022/09/19 03:58:52;;;;;;;8.00;5.28;;;;;;;8.85;100.00;100123.75;5040415;28;20104;-63
2022/09/19 04:01:21;;;;;;;9.57;4.53;;;;;;;8.87;100.00;100126.28;5041935;28;20080;-62
2022/09/19 04:03:49;;;;;;;8.48;4.97;;;;;;;8.90;100.00;100127.88;5025775;28;20061;-63
2022/09/19 04:06:16;;;;;;;11.45;5.30;;;;;;;8.91;100.00;100127.78;5041628;28;20045;-64
2022/09/19 04:08:44;;;;;;;9.88;5.38;;;;;;;8.91;100.00;100133.03;5048230;28;20049;-64
2022/09/19 04:11:12;;;;;;;9.70;5.78;;;;;;;8.92;100.00;100129.50;5047274;28;20620;-63
2022/09/19 04:13:39;;;;;;;9.93;5.28;;;;;;;8.95;100.00;100129.28;5044053;28;20064;-66
2022/09/19 04:16:06;;;;;;;9.48;5.97;;;;;;;8.98;100.00;100133.53;5020890;28;20136;-64
2022/09/19 04:18:34;;;;;;;8.45;4.55;;;;;;;9.06;100.00;100126.03;5044122;28;20067;-65
2022/09/19 04:21:03;;;;;;;8.45;5.28;;;;;;;9.05;100.00;100132.19;5044790;28;20400;-64
2022/09/19 04:23:30;;;;;;;9.80;5.13;;;;;;;9.05;100.00;100134.81;5043887;28;20061;-64
2022/09/19 04:25:57;;;;;;;8.10;4.60;;;;;;;9.07;100.00;100133.81;5003997;28;20045;-62
2022/09/19 04:28:24;;;;;;;9.15;4.47;;;;;;;9.07;100.00;100131.19;5042845;28;20417;-64
2022/09/19 04:30:52;;;;;;;9.32;5.20;;;;;;;9.07;100.00;100141.69;5042975;28;20049;-64
2022/09/19 04:33:22;;;;;;;6.13;4.32;;;;;;;9.06;100.00;100157.53;5044245;28;20068;-64
2022/09/19 04:35:49;;;;;;;11.93;5.25;;;;;;;9.10;100.00;100153.81;5044957;28;20045;-64
2022/09/19 04:38:18;;;;;;;16.10;5.47;;;;;;;9.11;100.00;100160.72;5042289;28;20616;-63
2022/09/19 04:40:47;;;;;;;9.38;4.90;;;;;;;9.09;100.00;100152.09;5024875;28;20537;-62
2022/09/19 04:43:18;;;;;;;12.70;5.65;;;;;;;9.08;100.00;100155.66;5047770;28;20060;-63
2022/09/19 04:45:47;;;;;;;7.47;5.00;;;;;;;9.12;100.00;100159.78;5027733;28;20059;-64
2022/09/19 04:48:15;;;;;;;8.70;5.47;;;;;;;9.30;100.00;100163.09;5029842;28;20068;-64
2022/09/19 04:50:44;;;;;;;10.25;5.53;;;;;;;9.22;100.00;100167.94;5040987;28;20626;-64
2022/09/19 04:53:16;;;;;;;11.93;6.07;;;;;;;9.15;100.00;100166.66;5045391;28;20064;-65
2022/09/19 04:55:47;;;;;;;6.25;5.35;;;;;;;9.20;100.00;100175.94;5045580;28;20056;-64
2022/09/19 04:58:18;;;;;;;9.63;5.10;;;;;;;9.13;100.00;100167.56;5047103;28;20048;-64
2022/09/19 05:00:53;;;;;;;10.15;5.15;;;;;;;9.18;100.00;100172.53;5022303;28;20403;-64
2022/09/19 05:03:25;;;;;;;8.60;5.47;;;;;;;9.20;100.00;100177.72;5045868;28;20052;-64
2022/09/19 05:05:53;;;;;;;10.60;5.70;;;;;;;9.15;100.00;100183.25;5025893;28;20048;-64
2022/09/19 05:08:25;;;;;;;8.40;5.50;;;;;;;9.19;100.00;100186.53;5024280;28;20052;-64
2022/09/19 05:10:58;;;;;;;8.98;5.35;;;;;;;9.18;100.00;100184.81;5043296;28;20075;-64
2022/09/19 05:13:28;;;;;;;11.88;5.60;;;;;;;9.17;100.00;100191.88;5041868;28;20057;-66
2022/09/19 05:15:55;;;;;;;8.23;5.47;;;;;;;9.15;100.00;100183.25;5028013;28;20081;-66
2022/09/19 05:18:23;;;;;;;12.73;6.18;;;;;;;9.17;100.00;100194.50;5042704;28;20615;-64
2022/09/19 05:20:52;;;;;;;9.55;5.70;;;;;;;9.25;100.00;100200.13;5039096;28;20116;-65
2022/09/19 05:23:23;;;;;;;9.32;5.43;;;;;;;9.28;100.00;100197.34;5045137;28;20420;-64
2022/09/19 05:25:54;;;;;;;6.47;5.15;;;;;;;9.40;100.00;100206.22;5009059;28;20552;-64
2022/09/19 05:28:23;;;;;;;7.25;4.75;;;;;;;9.42;100.00;100204.38;5044077;28;20049;-64
2022/09/19 05:30:54;;;;;;;9.43;5.32;;;;;;;9.44;100.00;100199.00;5041290;28;20041;-65
2022/09/19 05:33:28;;;;;;;11.02;5.43;;;;;;;9.45;100.00;100201.53;5038530;28;20041;-65
2022/09/19 05:35:59;;;;;;;8.63;5.18;;;;;;;9.47;100.00;100211.97;5017711;28;20057;-65
2022/09/19 05:38:29;;;;;;;8.93;5.20;;;;;;;9.45;100.00;100212.06;5045799;28;20045;-65
2022/09/19 05:40:58;;;;;;;13.20;5.85;;;;;;;9.42;100.00;100206.16;5024151;28;20049;-65
2022/09/19 05:43:26;;;;;;;11.02;5.85;;;;;;;9.42;100.00;100207.00;5043647;28;20049;-64
2022/09/19 05:45:54;;;;;;;14.20;7.47;;;;;;;9.44;100.00;100217.41;5041043;28;20045;-63
2022/09/19 05:48:22;;;;;;;11.85;7.10;;;;;;;9.45;100.00;100214.69;5038812;28;20061;-65
2022/09/19 05:50:51;;;;;;;12.63;6.57;;;;;;;9.47;100.00;100217.22;5048262;28;20049;-64
2022/09/19 05:56:06;;;;;;;18.70;7.88;;;;;;;9.50;100.00;100232.78;5027333;28;20380;-64
2022/09/19 05:58:37;;;;;;;34.75;8.52;;;;;;;9.50;100.00;100225.78;5042392;28;20064;-65
2022/09/19 06:01:06;;;;;;;11.13;5.53;;;;;;;9.55;100.00;100233.38;5047663;28;20053;-64
2022/09/19 06:03:34;;;;;;;13.85;5.50;;;;;;;9.54;100.00;100229.88;5043231;28;20080;-65
2022/09/19 06:06:01;;;;;;;8.90;5.22;;;;;;;9.53;100.00;100238.72;5027088;28;20129;-64
2022/09/19 06:08:28;;;;;;;9.63;5.28;;;;;;;9.57;100.00;100236.75;5027621;28;20053;-65
2022/09/19 06:10:59;;;;;;;12.32;5.25;;;;;;;9.59;100.00;100245.38;5045071;28;20075;-62
2022/09/19 06:14:13;;;;;;;8.77;5.13;;;;;;;9.62;100.00;100245.19;5022810;28;20065;-63
2022/09/19 06:16:13;;;;;;;12.80;4.72;;;;;;;9.63;100.00;100241.63;5036881;28;20358;-61
2022/09/19 06:18:40;;;;;;;8.23;4.07;;;;;;;9.69;100.00;100254.41;5045161;28;20047;-64
2022/09/19 06:21:13;;;;;;;9.38;5.35;;;;;;;9.74;100.00;100254.97;5037636;28;20099;-63
2022/09/19 06:23:41;;;;;;;9.13;3.88;;;;;;;9.76;100.00;100258.31;5043627;28;20088;-63
2022/09/19 06:26:09;;;;;;;7.57;3.53;;;;;;;9.86;100.00;100264.72;5022100;28;20132;-63
2022/09/19 06:28:36;;;;;;;6.75;3.80;;;;;;;9.88;100.00;100264.63;5034469;28;20060;-63
2022/09/19 06:31:03;;;;;;;14.60;4.40;;;;;;;9.90;100.00;100268.00;5038027;28;20624;-64
2022/09/19 06:33:31;;;;;;;9.85;4.22;;;;;;;9.90;100.00;100266.22;5048688;28;20081;-63
2022/09/19 06:35:59;;;;;;;8.13;4.70;;;;;;;9.93;100.00;100269.59;5025105;28;20053;-63
2022/09/19 06:38:27;;;;;;;13.88;4.57;;;;;;;9.96;100.00;100270.25;5047078;28;20082;-64
2022/09/19 06:40:54;;;;;;;6.57;3.10;;;;;;;10.10;100.00;100278.13;5043030;28;20060;-64
2022/09/19 06:43:22;;;;;;;9.07;3.70;;;;;;;10.20;100.00;100280.19;5041586;28;20067;-64
2022/09/19 06:45:49;;;;;;;9.52;3.58;;;;;;;10.18;100.00;100282.94;5028940;28;20051;-64
2022/09/19 06:48:16;;;;;;;10.18;3.53;;;;;;;10.17;100.00;100280.38;5049090;28;20099;-63
2022/09/19 06:50:46;;;;;;;7.05;3.45;;;;;;;10.22;100.00;100287.06;5050543;28;20053;-63
2022/09/19 06:53:13;;;;;;;5.38;3.30;;;;;;;10.24;100.00;100289.59;5037896;28;20059;-63
2022/09/19 06:55:41;;;;;;;8.98;3.00;;;;;;;10.26;100.00;100295.59;5044285;28;20061;-64
2022/09/19 06:58:13;;;;;;;5.10;3.17;;;;;;;10.28;100.00;100296.38;5045701;28;20047;-64
2022/09/19 07:00:44;;;;;;;9.05;3.13;;;;;;;10.31;100.00;100304.06;5047734;28;20064;-63
2022/09/19 07:03:14;;;;;;;8.35;3.22;;;;;;;10.37;100.00;100309.78;5030023;28;20059;-63
2022/09/19 07:05:43;;;;;;;7.32;3.00;;;;;;;10.41;100.00;100306.97;5049081;28;20053;-63
2022/09/19 07:08:11;;;;;;;10.88;3.30;;;;;;;10.46;100.00;100305.72;5042158;28;20050;-63
2022/09/19 07:10:39;;;;;;;4.30;2.58;;;;;;;10.51;100.00;100314.19;5041323;28;20063;-63
2022/09/19 07:13:09;;;;;;;7.95;3.10;;;;;;;10.64;100.00;100322.16;5042698;28;20041;-64
2022/09/19 07:15:37;;;;;;;6.97;2.78;;;;;;;10.64;100.00;100319.50;5022644;28;20068;-65
2022/09/19 07:18:12;;;;;;;10.65;3.13;;;;;;;10.69;100.00;100322.69;5035382;28;20049;-64
2022/09/19 07:20:40;;;;;;;6.30;2.80;;;;;;;10.75;100.00;100318.81;5043194;28;20049;-64
2022/09/19 07:23:13;;;;;;;10.48;3.25;;;;;;;10.77;100.00;100322.22;5037542;28;20049;-64
2022/09/19 07:25:41;;;;;;;6.68;2.78;;;;;;;10.88;100.00;100330.25;5017989;28;20061;-63
2022/09/19 07:28:16;;;;;;;5.68;2.53;;;;;;;10.91;100.00;100327.41;5037853;28;20053;-63
2022/09/19 07:30:45;;;;;;;6.35;2.67;;;;;;;10.92;100.00;100321.19;5028162;28;20049;-63
2022/09/19 07:33:23;;;;;;;3.70;2.05;;;;;;;10.94;100.00;100335.09;5038577;28;20053;-64
2022/09/19 07:35:53;;;;;;;4.90;2.00;;;;;;;11.00;100.00;100333.88;5045201;28;20057;-64
2022/09/19 07:38:22;;;;;;;7.18;2.28;;;;;;;11.02;100.00;100339.88;5042047;28;20056;-64
2022/09/19 07:40:50;;;;;;;7.72;1.83;;;;;;;11.18;100.00;100339.72;5053728;28;20061;-64
2022/09/19 07:43:17;;;;;;;6.40;1.95;;;;;;;11.24;100.00;100349.84;5042978;28;20059;-64
2022/09/19 07:45:46;;;;;;;3.53;1.45;;;;;;;11.20;100.00;100351.00;5038075;28;20068;-64
2022/09/19 07:48:14;;;;;;;6.88;1.75;;;;;;;11.26;100.00;100358.53;5045116;28;20516;-64
2022/09/19 07:50:43;;;;;;;4.25;2.13;;;;;;;11.27;100.00;100362.84;5035112;28;20052;-64
2022/09/19 07:53:18;;;;;;;5.97;1.63;;;;;;;11.35;100.00;100366.66;5041718;28;20417;-63
2022/09/19 07:55:51;;;;;;;7.07;1.80;;;;;;;11.37;100.00;100372.66;5054655;28;20065;-63
2022/09/19 07:58:20;;;;;;;7.00;2.15;;;;;;;11.34;100.00;100366.75;5048771;28;20044;-64
2022/09/19 08:00:48;;;;;;;5.53;1.65;;;;;;;11.49;100.00;100365.75;5037185;28;20040;-64
2022/09/19 08:03:17;;;;;;;5.70;1.60;;;;;;;11.58;100.00;100369.56;5044775;28;20057;-64
2022/09/19 08:05:46;;;;;;;5.35;2.10;;;;;;;11.61;100.00;100370.16;5047568;28;20061;-64
2022/09/19 08:08:15;;;;;;;4.00;1.50;;;;;;;11.64;100.00;100385.78;5040495;28;20044;-64
2022/09/19 08:10:42;;;;;;;6.20;1.80;;;;;;;11.74;100.00;100388.66;5039596;28;20056;-63
2022/09/19 08:13:15;;;;;;;3.50;1.50;;;;;;;11.82;100.00;100378.47;5042630;28;20049;-62
2022/09/19 08:15:44;;;;;;;3.38;1.63;;;;;;;11.80;100.00;100393.53;5045534;28;20053;-64
2022/09/19 08:18:17;;;;;;;4.88;1.42;;;;;;;11.82;100.00;100396.94;5044194;28;20052;-64
2022/09/19 08:20:44;;;;;;;9.00;1.80;;;;;;;11.86;100.00;100387.84;5053211;28;20076;-63
2022/09/19 08:23:13;;;;;;;3.83;2.25;;;;;;;11.91;100.00;100395.47;5055039;28;20473;-64
2022/09/19 08:25:46;;;;;;;4.85;1.60;;;;;;;11.97;100.00;100396.81;5044734;28;20067;-62
2022/09/19 08:28:14;;;;;;;5.35;1.50;;;;;;;12.00;100.00;100404.53;5022660;28;20040;-64
2022/09/19 08:30:43;;;;;;;3.28;1.10;;;;;;;12.03;100.00;100407.81;5042607;28;20056;-64
2022/09/19 08:33:11;;;;;;;4.03;1.25;;;;;;;12.04;100.00;100398.94;5040185;28;20645;-64
2022/09/19 08:35:41;;;;;;;2.85;1.02;;;;;;;12.16;100.00;100407.84;5027429;28;20048;-64
2022/09/19 08:38:10;;;;;;;4.05;1.10;;;;;;;12.21;100.00;100404.88;5040763;28;20068;-64
2022/09/19 08:40:40;;;;;;;5.38;1.00;;;;;;;12.35;100.00;100407.38;5043396;28;20064;-64
2022/09/19 08:43:11;;;;;;;3.63;1.42;;;;;;;12.44;100.00;100417.31;5043618;28;20805;-64
2022/09/19 08:46:03;;;;;;;3.92;1.10;;;;;;;12.52;100.00;100422.03;5039923;28;20048;-64
2022/09/19 08:49:05;;;;;;;3.45;1.08;;;;;;;12.55;100.00;100413.91;5021750;28;20045;-64
2022/09/19 08:51:51;;;;;;;2.58;1.20;;;;;;;12.61;100.00;100416.97;5021544;28;20064;-64
2022/09/19 08:54:36;;;;;;;3.10;1.10;;;;;;;12.75;100.00;100425.72;5040719;28;20044;-64
2022/09/19 08:57:03;;;;;;;4.28;1.38;;;;;;;12.83;100.00;100428.63;5026239;28;20053;-64
2022/09/19 08:59:34;;;;;;;5.40;1.17;;;;;;;12.88;100.00;100430.00;5041988;28;20079;-64
2022/09/19 09:02:29;;;;;;;9.65;1.65;;;;;;;12.97;98.50;100425.88;5028868;28;20140;-64
2022/09/19 09:05:23;;;;;;;3.47;1.73;;;;;;;13.05;97.50;100433.22;5023928;28;20555;-64
2022/09/19 09:08:17;;;;;;;5.55;0.88;;;;;;;12.99;96.79;100434.50;5041119;28;20124;-64
2022/09/19 09:10:53;;;;;;;5.18;0.98;;;;;;;13.02;97.01;100430.81;5042911;28;20060;-64
2022/09/19 09:13:33;;;;;;;5.60;1.10;;;;;;;13.07;97.00;100433.97;5036352;28;20049;-64
2022/09/19 09:16:44;;;;;;;3.40;1.00;;;;;;;13.13;96.12;100431.72;5010535;28;20417;-64
2022/09/19 09:19:24;;;;;;;3.33;1.00;;;;;;;13.24;95.84;100444.19;5023109;28;20565;-64
2022/09/19 09:22:02;;;;;;;5.43;1.20;;;;;;;13.31;93.80;100444.59;5021449;28;20056;-64
2022/09/19 09:24:35;;;;;;;3.60;1.17;;;;;;;13.41;92.26;100433.22;5020372;28;20609;-63
2022/09/19 09:27:10;;;;;;;3.88;1.08;;;;;;;13.53;92.05;100431.47;5022029;28;20053;-64
2022/09/19 09:29:50;;;;;;;1.77;0.70;;;;;;;13.71;91.16;100431.91;5028812;28;20055;-63
2022/09/19 09:32:17;;;;;;;4.75;1.10;;;;;;;13.74;90.15;100434.31;5020968;28;20060;-64
2022/09/19 09:34:49;;;;;;;6.38;0.82;;;;;;;13.81;90.12;100435.53;5039494;28;20044;-64
2022/09/19 09:37:26;;;;;;;3.65;0.88;;;;;;;13.85;88.80;100428.22;5035296;28;20409;-64
2022/09/19 09:40:09;;;;;;;2.22;1.08;;;;;;;13.93;90.13;100429.31;5043872;28;20049;-64
2022/09/19 09:42:45;;;;;;;3.10;0.60;;;;;;;13.99;88.14;100427.16;5022261;28;20056;-64
2022/09/19 09:45:14;;;;;;;;;;;;;;;14.10;86.76;100429.84;5025530;28;20052;-64
2022/09/19 09:48:08;;;;;;;2.20;0.93;;;;;;;14.10;85.11;100425.38;5040625;28;19925;-64
2022/09/19 09:50:57;;;;;;;2.03;0.68;;;;;;;14.10;83.62;100429.84;5038710;28;20059;-64
2022/09/19 09:53:52;;;;;;;1.35;0.73;;;;;;;13.98;83.68;100425.47;5030574;28;20053;-64
2022/09/19 09:56:38;;;;;;;4.30;0.80;;;;;;;13.99;86.40;100464.22;5040175;28;20524;-64
2022/09/19 10:05:25;;;;;;;1.92;0.95;;;;;;;13.59;94.16;100472.47;5043356;28;20045;-64
2022/09/19 10:08:28;;;;;;;5.30;1.10;;;;;;;13.52;95.82;100485.31;5026960;28;20045;-64
2022/09/19 10:11:04;;;;;;;5.50;1.00;;;;;;;13.28;95.51;100472.06;5026884;28;20045;-64
2022/09/19 10:13:59;;;;;;;4.00;0.80;;;;;;;13.09;96.53;100461.13;5027091;28;20041;-64
2022/09/19 10:16:28;;;;;;;1.85;0.60;;;;;;;12.77;91.11;100468.69;5046590;28;20057;-64
2022/09/19 10:19:04;;;;;;;0.63;0.50;;;;;;;12.48;90.66;100462.81;5026601;28;20077;-64
2022/09/19 10:21:31;;;;;;;2.58;0.50;;;;;;;12.32;92.19;100474.44;5044129;28;20060;-64
2022/09/19 10:23:59;;;;;;;2.45;0.65;;;;;;;12.27;92.94;100484.47;5039405;28;20055;-64
2022/09/19 10:26:28;;;;;;;1.92;0.68;;;;;;;12.09;94.09;100490.97;5048167;28;20048;-63
2022/09/19 10:29:02;;;;;;;8.65;1.30;;;;;;;11.97;95.34;100495.28;5041402;28;20066;-64
2022/09/19 10:31:34;;;;;;;2.72;0.50;;;;;;;11.86;95.79;100490.72;5019318;28;20060;-63
2022/09/19 10:34:07;;;;;;;3.17;0.90;;;;;;;11.81;96.41;100486.69;5034882;28;20553;-64
2022/09/19 10:36:47;;;;;;;2.97;0.75;;;;;;;11.64;95.48;100483.34;5040647;28;20064;-64
2022/09/19 10:39:16;;;;;;;1.40;0.60;;;;;;;11.47;94.98;100490.66;5044077;28;20051;-64
2022/09/19 10:41:43;;;;;;;2.60;0.65;;;;;;;11.36;96.25;100486.09;5046699;28;20053;-64
2022/09/19 10:44:23;;;;;;;2.15;0.77;;;;;;;11.41;96.91;100476.09;5029635;28;20060;-64
2022/09/19 10:46:54;;;;;;;1.58;0.68;;;;;;;11.23;95.00;100478.13;5021836;28;20053;-64
2022/09/19 10:49:25;;;;;;;1.10;0.57;;;;;;;11.08;93.57;100493.13;5036355;28;20053;-64
2022/09/19 10:51:55;;;;;;;1.48;0.65;;;;;;;11.22;94.72;100483.50;5030467;28;20053;-63
2022/09/19 10:54:30;;;;;;;1.80;0.70;;;;;;;11.11;93.72;100482.38;5021937;28;20379;-63
2022/09/19 10:57:01;;;;;;;1.60;0.70;;;;;;;11.03;93.83;100482.03;5049313;28;20053;-64
2022/09/19 10:59:36;;;;;;;5.18;0.70;;;;;;;10.98;94.02;100480.63;5047222;28;20088;-64
2022/09/19 11:02:08;;;;;;;2.20;0.60;;;;;;;10.88;93.62;100473.28;5045565;28;20131;-65
2022/09/19 11:04:37;;;;;;;1.05;0.40;;;;;;;10.93;93.85;100473.00;5040097;28;20053;-64
2022/09/19 11:07:16;;;;;;;1.45;0.60;;;;;;;10.87;91.54;100468.97;5012044;28;20049;-63
2022/09/19 11:09:45;;;;;;;1.75;0.70;;;;;;;10.92;91.63;100468.69;5049084;28;20057;-64
2022/09/19 11:12:15;;;;;;;1.30;0.50;;;;;;;10.96;91.93;100475.47;5037502;28;20046;-64
2022/09/19 11:14:44;;;;;;;0.85;0.52;;;;;;;11.02;93.25;100480.31;5047376;28;20407;-64
2022/09/19 11:17:53;;;;;;;1.13;0.60;;;;;;;11.16;93.99;100484.72;5026008;28;20060;-64
2022/09/19 11:20:30;;;;;;;2.78;0.80;;;;;;;11.36;94.37;100489.56;5042082;28;20655;-63
2022/09/19 11:23:28;;;;;;;4.03;1.02;;;;;;;11.72;97.39;100482.00;5048088;28;20525;-64
2022/09/19 11:26:10;;;;;;;2.30;0.73;;;;;;;12.06;99.26;100481.47;5040834;28;20049;-64
2022/09/19 11:28:52;;;;;;;2.08;0.90;;;;;;;12.30;95.91;100484.25;5000948;28;20068;-64
2022/09/19 11:31:42;;;;;;;5.38;1.38;;;;;;;12.54;94.89;100484.34;5048177;28;20057;-64
2022/09/19 11:34:43;;;;;;;2.50;0.80;;;;;;;12.73;93.23;100486.56;5030212;28;20079;-64
2022/09/19 11:37:44;;;;;;;1.45;0.73;;;;;;;12.99;93.14;100492.66;5034399;28;20045;-64
2022/09/19 11:40:11;;;;;;;4.18;1.00;;;;;;;13.29;92.06;100494.09;5043948;28;20786;-64
2022/09/19 11:42:49;;;;;;;5.60;1.42;;;;;;;13.57;92.83;100493.75;5046322;28;20551;-63
2022/09/19 11:45:19;;;;;;;4.35;1.13;;;;;;;13.81;91.64;100492.91;5022260;28;20123;-65
2022/09/19 11:48:10;;;;;;;2.78;1.05;;;;;;;13.96;88.06;100493.53;5008367;28;20041;-66
2022/09/19 11:50:56;;;;;;;3.15;0.93;;;;;;;14.17;87.46;100484.81;5013144;28;20049;-66
2022/09/19 11:53:42;;;;;;;2.80;1.13;;;;;;;14.56;86.46;100489.88;5023595;28;20049;-66
2022/09/19 11:56:09;;;;;;;6.80;1.33;;;;;;;14.65;86.97;100484.69;5023619;28;20151;-66
2022/09/19 11:58:51;;;;;;;4.30;1.42;;;;;;;14.92;86.28;100483.50;5040757;28;20052;-65
2022/09/19 12:01:45;;;;;;;4.50;1.48;;;;;;;15.17;85.99;100490.31;5043848;28;20053;-65
2022/09/19 12:04:23;;;;;;;4.20;1.35;;;;;;;15.51;83.46;100490.25;5029690;28;20048;-65
2022/09/19 12:06:57;;;;;;;2.08;0.88;;;;;;;15.92;82.08;100490.34;5042341;28;20501;-65
2022/09/19 12:09:33;;;;;;;2.17;1.00;;;;;;;15.78;81.53;100503.09;5009291;28;20048;-65